Terminal Aerodrome Forecast
Issued by NWS Jackson, KY

Home | Current Version | Previous Version | Text Only | Print | Product List | Glossary On
Versions: 1 2 3 4 5 6 7 8 9 10 11 12 13 14 15 16 17 18 19 20 21 22 23 24 25 26 27 28 29
000
FTUS43 KJKL 291008 AAC
TAFJKL
TAF AMD
KJKL 291008Z 2910/3006 VRB03KT 6SM BR OVC003
     FM291400 31003KT 6SM BR VCSH OVC005
     FM291500 VRB03KT P6SM OVC015
     FM291700 00000KT P6SM VCSH BKN020
     FM300400 00000KT 2SM BR OVC007=

USA.gov is the U.S. government's official web portal to all federal, state and local government web resources and services.